sensor_id;sensor_type;location;lat;lon;timestamp;temperature;humidity
71096;DHT22;58753;49.440;11.126;2023-09-19T00:00:56;15.85;94.86
71096;DHT22;58753;49.440;11.126;2023-09-19T00:03:21;15.84;94.86
71096;DHT22;58753;49.440;11.126;2023-09-19T00:05:48;15.85;94.87
71096;DHT22;58753;49.440;11.126;2023-09-19T00:08:15;15.84;94.83
71096;DHT22;58753;49.440;11.126;2023-09-19T00:10:41;15.78;94.76
71096;DHT22;58753;49.440;11.126;2023-09-19T00:13:09;15.78;94.78
71096;DHT22;58753;49.440;11.126;2023-09-19T00:15:40;15.81;94.77
71096;DHT22;58753;49.440;11.126;2023-09-19T00:18:07;15.79;94.75
71096;DHT22;58753;49.440;11.126;2023-09-19T00:20:37;15.75;94.73
71096;DHT22;58753;49.440;11.126;2023-09-19T00:23:06;15.74;94.70
71096;DHT22;58753;49.440;11.126;2023-09-19T00:25:34;15.77;94.65
71096;DHT22;58753;49.440;11.126;2023-09-19T00:28:03;15.75;94.61
71096;DHT22;58753;49.440;11.126;2023-09-19T00:30:28;15.74;94.63
71096;DHT22;58753;49.440;11.126;2023-09-19T00:32:54;15.71;94.54
71096;DHT22;58753;49.440;11.126;2023-09-19T00:35:22;15.67;94.36
71096;DHT22;58753;49.440;11.126;2023-09-19T00:37:51;15.58;94.44
71096;DHT22;58753;49.440;11.126;2023-09-19T00:40:17;15.53;94.38
71096;DHT22;58753;49.440;11.126;2023-09-19T00:42:46;15.47;94.43
71096;DHT22;58753;49.440;11.126;2023-09-19T00:45:15;15.43;94.53
71096;DHT22;58753;49.440;11.126;2023-09-19T00:50:09;15.35;94.62
71096;DHT22;58753;49.440;11.126;2023-09-19T00:52:40;15.34;94.65
71096;DHT22;58753;49.440;11.126;2023-09-19T00:55:13;15.35;94.71
71096;DHT22;58753;49.440;11.126;2023-09-19T00:57:39;15.33;94.70
71096;DHT22;58753;49.440;11.126;2023-09-19T01:00:09;15.34;94.80
71096;DHT22;58753;49.440;11.126;2023-09-19T01:02:44;15.33;94.76
71096;DHT22;58753;49.440;11.126;2023-09-19T01:05:09;15.31;94.76
71096;DHT22;58753;49.440;11.126;2023-09-19T01:07:38;15.31;94.71
71096;DHT22;58753;49.440;11.126;2023-09-19T01:10:08;15.30;94.66
71096;DHT22;58753;49.440;11.126;2023-09-19T01:13:05;15.22;94.70
71096;DHT22;58753;49.440;11.126;2023-09-19T01:21:01;15.16;94.75
71096;DHT22;58753;49.440;11.126;2023-09-19T01:23:45;15.13;94.67
71096;DHT22;58753;49.440;11.126;2023-09-19T01:32:02;15.14;94.83
71096;DHT22;58753;49.440;11.126;2023-09-19T01:34:56;15.16;94.85
71096;DHT22;58753;49.440;11.126;2023-09-19T01:37:23;15.17;94.88
71096;DHT22;58753;49.440;11.126;2023-09-19T01:42:37;15.14;94.81
71096;DHT22;58753;49.440;11.126;2023-09-19T01:45:13;15.14;94.78
71096;DHT22;58753;49.440;11.126;2023-09-19T01:47:54;15.13;94.73
71096;DHT22;58753;49.440;11.126;2023-09-19T01:50:32;15.11;94.85
71096;DHT22;58753;49.440;11.126;2023-09-19T01:53:04;15.11;94.90
71096;DHT22;58753;49.440;11.126;2023-09-19T01:55:34;15.16;94.96
71096;DHT22;58753;49.440;11.126;2023-09-19T01:58:07;15.16;94.96
71096;DHT22;58753;49.440;11.126;2023-09-19T02:00:36;15.19;94.87
71096;DHT22;58753;49.440;11.126;2023-09-19T02:03:04;15.20;94.92
71096;DHT22;58753;49.440;11.126;2023-09-19T02:05:29;15.17;94.99
71096;DHT22;58753;49.440;11.126;2023-09-19T02:07:56;15.19;94.97
71096;DHT22;58753;49.440;11.126;2023-09-19T02:10:23;15.24;95.00
71096;DHT22;58753;49.440;11.126;2023-09-19T02:12:50;15.26;95.06
71096;DHT22;58753;49.440;11.126;2023-09-19T02:15:16;15.27;95.05
71096;DHT22;58753;49.440;11.126;2023-09-19T02:17:43;15.28;94.99
71096;DHT22;58753;49.440;11.126;2023-09-19T02:20:12;15.31;95.07
71096;DHT22;58753;49.440;11.126;2023-09-19T02:22:37;15.34;95.05
71096;DHT22;58753;49.440;11.126;2023-09-19T02:25:04;15.34;95.02
71096;DHT22;58753;49.440;11.126;2023-09-19T02:27:30;15.38;95.02
71096;DHT22;58753;49.440;11.126;2023-09-19T02:29:58;15.38;94.98
71096;DHT22;58753;49.440;11.126;2023-09-19T02:32:24;15.43;95.03
71096;DHT22;58753;49.440;11.126;2023-09-19T02:34:52;15.40;95.02
71096;DHT22;58753;49.440;11.126;2023-09-19T02:37:17;15.41;95.03
71096;DHT22;58753;49.440;11.126;2023-09-19T02:39:49;15.47;95.01
71096;DHT22;58753;49.440;11.126;2023-09-19T02:42:15;15.47;95.04
71096;DHT22;58753;49.440;11.126;2023-09-19T02:44:40;15.48;95.03
71096;DHT22;58753;49.440;11.126;2023-09-19T02:47:08;15.47;94.98
71096;DHT22;58753;49.440;11.126;2023-09-19T02:49:33;15.51;94.95
71096;DHT22;58753;49.440;11.126;2023-09-19T02:52:00;15.51;94.99
71096;DHT22;58753;49.440;11.126;2023-09-19T02:54:27;15.53;94.83
71096;DHT22;58753;49.440;11.126;2023-09-19T02:56:55;15.57;94.95
71096;DHT22;58753;49.440;11.126;2023-09-19T02:59:26;15.58;94.67
71096;DHT22;58753;49.440;11.126;2023-09-19T03:01:55;15.61;94.69
71096;DHT22;58753;49.440;11.126;2023-09-19T03:04:23;15.62;94.49
71096;DHT22;58753;49.440;11.126;2023-09-19T03:06:51;15.67;94.59
71096;DHT22;58753;49.440;11.126;2023-09-19T03:09:18;15.72;94.51
71096;DHT22;58753;49.440;11.126;2023-09-19T03:11:44;15.71;94.37
71096;DHT22;58753;49.440;11.126;2023-09-19T03:14:13;15.72;94.43
71096;DHT22;58753;49.440;11.126;2023-09-19T03:16:40;15.71;94.07
71096;DHT22;58753;49.440;11.126;2023-09-19T03:19:05;15.74;94.17
71096;DHT22;58753;49.440;11.126;2023-09-19T03:21:35;15.78;94.11
71096;DHT22;58753;49.440;11.126;2023-09-19T03:24:01;15.78;94.04
71096;DHT22;58753;49.440;11.126;2023-09-19T03:26:26;15.77;93.99
71096;DHT22;58753;49.440;11.126;2023-09-19T03:28:52;15.74;93.78
71096;DHT22;58753;49.440;11.126;2023-09-19T03:31:18;15.69;93.85
71096;DHT22;58753;49.440;11.126;2023-09-19T03:33:43;15.69;93.85
71096;DHT22;58753;49.440;11.126;2023-09-19T03:36:09;15.65;93.79
71096;DHT22;58753;49.440;11.126;2023-09-19T03:38:34;15.65;93.79
71096;DHT22;58753;49.440;11.126;2023-09-19T03:41:02;15.61;93.68
71096;DHT22;58753;49.440;11.126;2023-09-19T03:43:28;15.62;93.69
71096;DHT22;58753;49.440;11.126;2023-09-19T03:45:54;15.62;93.66
71096;DHT22;58753;49.440;11.126;2023-09-19T03:48:22;15.57;93.54
71096;DHT22;58753;49.440;11.126;2023-09-19T03:50:48;15.58;93.64
71096;DHT22;58753;49.440;11.126;2023-09-19T03:53:13;15.57;93.52
71096;DHT22;58753;49.440;11.126;2023-09-19T03:55:39;15.55;93.48
71096;DHT22;58753;49.440;11.126;2023-09-19T03:58:07;15.55;93.42
71096;DHT22;58753;49.440;11.126;2023-09-19T04:00:35;15.55;93.41
71096;DHT22;58753;49.440;11.126;2023-09-19T04:03:00;15.55;93.37
71096;DHT22;58753;49.440;11.126;2023-09-19T04:05:31;15.55;93.38
71096;DHT22;58753;49.440;11.126;2023-09-19T04:07:56;15.53;93.31
71096;DHT22;58753;49.440;11.126;2023-09-19T04:10:22;15.50;93.25
71096;DHT22;58753;49.440;11.126;2023-09-19T04:12:53;15.48;93.27
71096;DHT22;58753;49.440;11.126;2023-09-19T04:15:21;15.50;93.16
71096;DHT22;58753;49.440;11.126;2023-09-19T04:17:50;15.50;93.20
71096;DHT22;58753;49.440;11.126;2023-09-19T04:20:20;15.51;93.16
71096;DHT22;58753;49.440;11.126;2023-09-19T04:22:48;15.51;93.07
71096;DHT22;58753;49.440;11.126;2023-09-19T04:25:13;15.48;93.08
71096;DHT22;58753;49.440;11.126;2023-09-19T04:27:39;15.51;93.08
71096;DHT22;58753;49.440;11.126;2023-09-19T04:30:07;15.47;93.04
71096;DHT22;58753;49.440;11.126;2023-09-19T04:32:36;15.44;92.98
71096;DHT22;58753;49.440;11.126;2023-09-19T04:35:08;15.47;93.04
71096;DHT22;58753;49.440;11.126;2023-09-19T04:37:40;15.47;92.99
71096;DHT22;58753;49.440;11.126;2023-09-19T04:40:10;15.51;92.92
71096;DHT22;58753;49.440;11.126;2023-09-19T04:42:40;15.54;92.96
71096;DHT22;58753;49.440;11.126;2023-09-19T04:45:08;15.54;93.00
71096;DHT22;58753;49.440;11.126;2023-09-19T04:47:35;15.55;92.95
71096;DHT22;58753;49.440;11.126;2023-09-19T04:50:03;15.55;92.84
71096;DHT22;58753;49.440;11.126;2023-09-19T04:52:32;15.58;92.90
71096;DHT22;58753;49.440;11.126;2023-09-19T04:54:57;15.62;92.85
71096;DHT22;58753;49.440;11.126;2023-09-19T04:57:23;15.67;92.70
71096;DHT22;58753;49.440;11.126;2023-09-19T04:59:48;15.72;92.73
71096;DHT22;58753;49.440;11.126;2023-09-19T05:02:15;15.74;92.50
71096;DHT22;58753;49.440;11.126;2023-09-19T05:04:43;15.77;92.49
71096;DHT22;58753;49.440;11.126;2023-09-19T05:07:13;15.77;92.43
71096;DHT22;58753;49.440;11.126;2023-09-19T05:09:41;15.77;92.36
71096;DHT22;58753;49.440;11.126;2023-09-19T05:12:11;15.79;92.36
71096;DHT22;58753;49.440;11.126;2023-09-19T05:14:39;15.81;92.39
71096;DHT22;58753;49.440;11.126;2023-09-19T05:17:05;15.82;92.31
71096;DHT22;58753;49.440;11.126;2023-09-19T05:19:31;15.81;92.28
71096;DHT22;58753;49.440;11.126;2023-09-19T05:22:00;15.84;92.38
71096;DHT22;58753;49.440;11.126;2023-09-19T05:24:25;15.79;92.23
71096;DHT22;58753;49.440;11.126;2023-09-19T05:26:54;15.79;92.16
71096;DHT22;58753;49.440;11.126;2023-09-19T05:29:23;15.78;92.00
71096;DHT22;58753;49.440;11.126;2023-09-19T05:31:48;15.79;92.17
71096;DHT22;58753;49.440;11.126;2023-09-19T05:34:14;15.81;92.07
71096;DHT22;58753;49.440;11.126;2023-09-19T05:36:44;15.81;92.07
71096;DHT22;58753;49.440;11.126;2023-09-19T05:39:10;15.82;92.07
71096;DHT22;58753;49.440;11.126;2023-09-19T05:41:36;15.81;91.96
71096;DHT22;58753;49.440;11.126;2023-09-19T05:44:04;15.82;91.99
71096;DHT22;58753;49.440;11.126;2023-09-19T05:46:29;15.84;92.01
71096;DHT22;58753;49.440;11.126;2023-09-19T05:48:55;15.84;91.85
71096;DHT22;58753;49.440;11.126;2023-09-19T05:51:22;15.87;91.99
71096;DHT22;58753;49.440;11.126;2023-09-19T05:53:48;15.88;91.87
71096;DHT22;58753;49.440;11.126;2023-09-19T05:56:14;15.87;91.79
71096;DHT22;58753;49.440;11.126;2023-09-19T05:58:42;15.88;91.73
71096;DHT22;58753;49.440;11.126;2023-09-19T06:01:09;15.92;91.74
71096;DHT22;58753;49.440;11.126;2023-09-19T06:03:38;15.89;91.59
71096;DHT22;58753;49.440;11.126;2023-09-19T06:06:03;15.94;91.54
71096;DHT22;58753;49.440;11.126;2023-09-19T06:08:31;15.96;91.54
71096;DHT22;58753;49.440;11.126;2023-09-19T06:10:57;15.98;91.54
71096;DHT22;58753;49.440;11.126;2023-09-19T06:13:22;16.01;91.49
71096;DHT22;58753;49.440;11.126;2023-09-19T06:15:48;16.04;91.32
71096;DHT22;58753;49.440;11.126;2023-09-19T06:18:14;16.05;91.13
71096;DHT22;58753;49.440;11.126;2023-09-19T06:20:45;16.05;91.15
71096;DHT22;58753;49.440;11.126;2023-09-19T06:23:13;16.06;90.97
71096;DHT22;58753;49.440;11.126;2023-09-19T06:25:39;16.13;90.95
71096;DHT22;58753;49.440;11.126;2023-09-19T06:28:06;16.12;90.87
71096;DHT22;58753;49.440;11.126;2023-09-19T06:30:33;16.13;90.91
71096;DHT22;58753;49.440;11.126;2023-09-19T06:33:00;16.23;90.72
71096;DHT22;58753;49.440;11.126;2023-09-19T06:35:26;16.28;90.65
71096;DHT22;58753;49.440;11.126;2023-09-19T06:37:52;16.26;90.51
71096;DHT22;58753;49.440;11.126;2023-09-19T06:40:18;16.25;90.36
71096;DHT22;58753;49.440;11.126;2023-09-19T06:42:50;16.29;90.33
71096;DHT22;58753;49.440;11.126;2023-09-19T06:45:16;16.30;90.23
71096;DHT22;58753;49.440;11.126;2023-09-19T06:47:51;16.34;90.09
71096;DHT22;58753;49.440;11.126;2023-09-19T06:50:23;16.39;90.04
71096;DHT22;58753;49.440;11.126;2023-09-19T06:52:53;16.39;89.69
71096;DHT22;58753;49.440;11.126;2023-09-19T06:55:21;16.42;89.63
71096;DHT22;58753;49.440;11.126;2023-09-19T06:57:49;16.49;89.49
71096;DHT22;58753;49.440;11.126;2023-09-19T07:00:18;16.56;89.40
71096;DHT22;58753;49.440;11.126;2023-09-19T07:02:45;16.61;89.18
71096;DHT22;58753;49.440;11.126;2023-09-19T07:05:10;16.67;88.84
71096;DHT22;58753;49.440;11.126;2023-09-19T07:07:36;16.69;88.42
71096;DHT22;58753;49.440;11.126;2023-09-19T07:10:04;16.77;88.07
71096;DHT22;58753;49.440;11.126;2023-09-19T07:12:37;16.84;87.39
71096;DHT22;58753;49.440;11.126;2023-09-19T07:15:03;16.87;87.10
71096;DHT22;58753;49.440;11.126;2023-09-19T07:17:31;16.93;86.60
71096;DHT22;58753;49.440;11.126;2023-09-19T07:19:58;16.93;85.74
71096;DHT22;58753;49.440;11.126;2023-09-19T07:22:25;16.93;85.09
71096;DHT22;58753;49.440;11.126;2023-09-19T07:24:51;17.00;84.72
71096;DHT22;58753;49.440;11.126;2023-09-19T07:27:17;17.11;84.24
71096;DHT22;58753;49.440;11.126;2023-09-19T07:29:42;17.13;83.90
71096;DHT22;58753;49.440;11.126;2023-09-19T07:32:08;17.14;83.45
71096;DHT22;58753;49.440;11.126;2023-09-19T07:34:35;17.15;82.76
71096;DHT22;58753;49.440;11.126;2023-09-19T07:37:00;17.14;81.78
71096;DHT22;58753;49.440;11.126;2023-09-19T07:39:28;17.18;81.76
71096;DHT22;58753;49.440;11.126;2023-09-19T07:41:54;17.22;81.55
71096;DHT22;58753;49.440;11.126;2023-09-19T07:44:22;17.28;81.37
71096;DHT22;58753;49.440;11.126;2023-09-19T07:46:47;17.28;80.88
71096;DHT22;58753;49.440;11.126;2023-09-19T07:49:16;17.22;80.01
71096;DHT22;58753;49.440;11.126;2023-09-19T07:51:45;17.21;78.92
71096;DHT22;58753;49.440;11.126;2023-09-19T07:54:12;17.13;78.71
71096;DHT22;58753;49.440;11.126;2023-09-19T07:56:40;17.21;78.53
71096;DHT22;58753;49.440;11.126;2023-09-19T07:59:06;17.25;78.77
71096;DHT22;58753;49.440;11.126;2023-09-19T08:01:31;17.30;78.75
71096;DHT22;58753;49.440;11.126;2023-09-19T08:03:58;17.38;78.23
71096;DHT22;58753;49.440;11.126;2023-09-19T08:06:26;17.46;77.86
71096;DHT22;58753;49.440;11.126;2023-09-19T08:08:55;17.62;77.88
71096;DHT22;58753;49.440;11.126;2023-09-19T08:11:22;17.68;76.36
71096;DHT22;58753;49.440;11.126;2023-09-19T08:13:49;17.74;76.29
71096;DHT22;58753;49.440;11.126;2023-09-19T08:16:18;17.79;76.05
71096;DHT22;58753;49.440;11.126;2023-09-19T08:18:50;17.82;75.75
71096;DHT22;58753;49.440;11.126;2023-09-19T08:21:18;17.87;75.80
71096;DHT22;58753;49.440;11.126;2023-09-19T08:23:44;17.87;75.38
71096;DHT22;58753;49.440;11.126;2023-09-19T08:26:09;17.85;75.10
71096;DHT22;58753;49.440;11.126;2023-09-19T08:28:35;17.83;75.23
71096;DHT22;58753;49.440;11.126;2023-09-19T08:31:04;17.83;75.59
71096;DHT22;58753;49.440;11.126;2023-09-19T08:33:34;17.79;75.02
71096;DHT22;58753;49.440;11.126;2023-09-19T08:36:01;17.90;75.22
71096;DHT22;58753;49.440;11.126;2023-09-19T08:38:26;17.83;73.96
71096;DHT22;58753;49.440;11.126;2023-09-19T08:41:06;17.87;73.74
71096;DHT22;58753;49.440;11.126;2023-09-19T08:43:34;17.97;74.23
71096;DHT22;58753;49.440;11.126;2023-09-19T08:46:12;18.02;74.11
71096;DHT22;58753;49.440;11.126;2023-09-19T08:48:45;18.09;74.91
71096;DHT22;58753;49.440;11.126;2023-09-19T08:51:21;18.09;74.06
71096;DHT22;58753;49.440;11.126;2023-09-19T08:54:03;18.14;73.66
71096;DHT22;58753;49.440;11.126;2023-09-19T08:56:32;18.20;73.56
71096;DHT22;58753;49.440;11.126;2023-09-19T08:59:03;18.27;73.64
71096;DHT22;58753;49.440;11.126;2023-09-19T09:01:31;18.25;72.44
71096;DHT22;58753;49.440;11.126;2023-09-19T09:03:57;18.34;73.77
71096;DHT22;58753;49.440;11.126;2023-09-19T09:06:30;18.34;71.59
71096;DHT22;58753;49.440;11.126;2023-09-19T09:08:57;18.37;71.07
71096;DHT22;58753;49.440;11.126;2023-09-19T09:11:26;18.40;70.85
71096;DHT22;58753;49.440;11.126;2023-09-19T09:13:53;18.47;70.50
71096;DHT22;58753;49.440;11.126;2023-09-19T09:16:18;18.56;71.00
71096;DHT22;58753;49.440;11.126;2023-09-19T09:18:44;18.58;69.48
71096;DHT22;58753;49.440;11.126;2023-09-19T09:21:11;18.64;69.73
71096;DHT22;58753;49.440;11.126;2023-09-19T09:23:42;18.77;69.87
71096;DHT22;58753;49.440;11.126;2023-09-19T09:26:07;18.85;69.09
71096;DHT22;58753;49.440;11.126;2023-09-19T09:28:44;18.88;67.51
71096;DHT22;58753;49.440;11.126;2023-09-19T09:31:22;18.85;66.93
71096;DHT22;58753;49.440;11.126;2023-09-19T09:33:57;18.84;66.63
71096;DHT22;58753;49.440;11.126;2023-09-19T09:36:37;18.75;66.06
71096;DHT22;58753;49.440;11.126;2023-09-19T09:39:03;18.71;65.71
71096;DHT22;58753;49.440;11.126;2023-09-19T09:41:41;18.74;64.96
71096;DHT22;58753;49.440;11.126;2023-09-19T09:44:17;18.72;65.49
71096;DHT22;58753;49.440;11.126;2023-09-19T09:46:45;18.77;65.24
71096;DHT22;58753;49.440;11.126;2023-09-19T09:49:25;18.81;65.02
71096;DHT22;58753;49.440;11.126;2023-09-19T09:54:32;18.88;64.65
71096;DHT22;58753;49.440;11.126;2023-09-19T09:57:08;18.94;64.72
71096;DHT22;58753;49.440;11.126;2023-09-19T09:59:52;19.02;63.98
71096;DHT22;58753;49.440;11.126;2023-09-19T10:02:28;19.07;64.42
71096;DHT22;58753;49.440;11.126;2023-09-19T10:05:20;19.11;64.77
71096;DHT22;58753;49.440;11.126;2023-09-19T10:07:46;19.12;64.84
71096;DHT22;58753;49.440;11.126;2023-09-19T10:13:08;19.14;63.80
71096;DHT22;58753;49.440;11.126;2023-09-19T10:15:39;19.15;63.18
71096;DHT22;58753;49.440;11.126;2023-09-19T10:18:12;19.18;63.78
71096;DHT22;58753;49.440;11.126;2023-09-19T10:20:44;19.18;63.65
71096;DHT22;58753;49.440;11.126;2023-09-19T10:23:11;19.25;63.38
71096;DHT22;58753;49.440;11.126;2023-09-19T10:25:45;19.31;63.62
71096;DHT22;58753;49.440;11.126;2023-09-19T10:28:13;19.48;63.59
71096;DHT22;58753;49.440;11.126;2023-09-19T10:30:46;19.41;62.51
71096;DHT22;58753;49.440;11.126;2023-09-19T10:33:17;19.45;62.85
71096;DHT22;58753;49.440;11.126;2023-09-19T10:35:47;19.52;62.61
71096;DHT22;58753;49.440;11.126;2023-09-19T10:38:17;19.55;61.20
71096;DHT22;58753;49.440;11.126;2023-09-19T10:40:44;19.66;61.34
71096;DHT22;58753;49.440;11.126;2023-09-19T10:43:17;19.76;60.94
71096;DHT22;58753;49.440;11.126;2023-09-19T10:45:47;19.84;60.32
71096;DHT22;58753;49.440;11.126;2023-09-19T10:48:16;19.93;59.42
71096;DHT22;58753;49.440;11.126;2023-09-19T10:51:06;19.98;58.78
71096;DHT22;58753;49.440;11.126;2023-09-19T10:53:55;19.98;57.80
71096;DHT22;58753;49.440;11.126;2023-09-19T10:56:36;20.07;57.56
71096;DHT22;58753;49.440;11.126;2023-09-19T10:59:14;20.10;56.86
71096;DHT22;58753;49.440;11.126;2023-09-19T11:01:44;20.23;56.72
71096;DHT22;58753;49.440;11.126;2023-09-19T11:04:26;20.40;56.31
71096;DHT22;58753;49.440;11.126;2023-09-19T11:07:08;20.67;54.49
71096;DHT22;58753;49.440;11.126;2023-09-19T11:09:57;20.95;55.12
71096;DHT22;58753;49.440;11.126;2023-09-19T11:15:08;21.39;53.08
71096;DHT22;58753;49.440;11.126;2023-09-19T11:17:39;21.40;51.89
71096;DHT22;58753;49.440;11.126;2023-09-19T11:30:49;21.57;50.70
71096;DHT22;58753;49.440;11.126;2023-09-19T11:33:29;21.76;51.33
71096;DHT22;58753;49.440;11.126;2023-09-19T11:36:11;21.93;50.20
71096;DHT22;58753;49.440;11.126;2023-09-19T11:43:46;22.04;49.72
71096;DHT22;58753;49.440;11.126;2023-09-19T11:46:14;21.98;49.55
71096;DHT22;58753;49.440;11.126;2023-09-19T11:48:53;21.70;49.26
71096;DHT22;58753;49.440;11.126;2023-09-19T11:51:23;21.84;49.63
71096;DHT22;58753;49.440;11.126;2023-09-19T11:53:53;21.80;48.89
71096;DHT22;58753;49.440;11.126;2023-09-19T11:56:25;21.36;48.58
71096;DHT22;58753;49.440;11.126;2023-09-19T11:58:55;21.13;49.13
71096;DHT22;58753;49.440;11.126;2023-09-19T12:01:31;21.03;49.92
71096;DHT22;58753;49.440;11.126;2023-09-19T12:03:59;20.88;50.99
71096;DHT22;58753;49.440;11.126;2023-09-19T12:06:29;20.95;51.62
71096;DHT22;58753;49.440;11.126;2023-09-19T12:08:55;21.16;52.74
71096;DHT22;58753;49.440;11.126;2023-09-19T12:11:23;21.38;52.63
71096;DHT22;58753;49.440;11.126;2023-09-19T12:13:48;21.62;52.84
71096;DHT22;58753;49.440;11.126;2023-09-19T12:16:19;21.64;52.26
71096;DHT22;58753;49.440;11.126;2023-09-19T12:18:50;21.74;52.73
71096;DHT22;58753;49.440;11.126;2023-09-19T12:21:29;21.93;51.93
71096;DHT22;58753;49.440;11.126;2023-09-19T12:24:11;22.05;50.57
71096;DHT22;58753;49.440;11.126;2023-09-19T12:26:43;22.21;49.17
71096;DHT22;58753;49.440;11.126;2023-09-19T12:29:13;22.40;47.56
71096;DHT22;58753;49.440;11.126;2023-09-19T12:34:26;22.21;47.88
71096;DHT22;58753;49.440;11.126;2023-09-19T12:37:24;22.25;47.70
71096;DHT22;58753;49.440;11.126;2023-09-19T12:40:06;22.31;48.66
71096;DHT22;58753;49.440;11.126;2023-09-19T12:42:43;22.31;47.72
71096;DHT22;58753;49.440;11.126;2023-09-19T12:45:12;22.17;48.78
71096;DHT22;58753;49.440;11.126;2023-09-19T12:47:40;22.08;48.18
71096;DHT22;58753;49.440;11.126;2023-09-19T12:50:13;22.04;49.26
71096;DHT22;58753;49.440;11.126;2023-09-19T12:52:49;21.67;49.03
71096;DHT22;58753;49.440;11.126;2023-09-19T12:55:31;21.50;49.65
71096;DHT22;58753;49.440;11.126;2023-09-19T12:58:13;21.54;49.59
71096;DHT22;58753;49.440;11.126;2023-09-19T13:00:45;21.59;50.25
71096;DHT22;58753;49.440;11.126;2023-09-19T13:08:25;22.03;49.51
71096;DHT22;58753;49.440;11.126;2023-09-19T13:16:21;22.18;48.91
71096;DHT22;58753;49.440;11.126;2023-09-19T13:18:53;22.22;48.55
71096;DHT22;58753;49.440;11.126;2023-09-19T13:21:30;22.28;48.52
71096;DHT22;58753;49.440;11.126;2023-09-19T13:24:19;22.35;48.21
71096;DHT22;58753;49.440;11.126;2023-09-19T13:26:45;22.49;48.03
71096;DHT22;58753;49.440;11.126;2023-09-19T13:29:11;22.21;46.86
71096;DHT22;58753;49.440;11.126;2023-09-19T13:31:36;22.10;48.18
71096;DHT22;58753;49.440;11.126;2023-09-19T13:34:06;22.24;48.22
71096;DHT22;58753;49.440;11.126;2023-09-19T13:36:32;22.30;49.42
71096;DHT22;58753;49.440;11.126;2023-09-19T13:38:58;22.56;48.72
71096;DHT22;58753;49.440;11.126;2023-09-19T13:41:27;22.72;48.14
71096;DHT22;58753;49.440;11.126;2023-09-19T13:43:56;22.52;47.50
71096;DHT22;58753;49.440;11.126;2023-09-19T13:46:24;22.61;48.17
71096;DHT22;58753;49.440;11.126;2023-09-19T13:48:51;22.58;48.12
71096;DHT22;58753;49.440;11.126;2023-09-19T13:51:23;22.75;48.11
71096;DHT22;58753;49.440;11.126;2023-09-19T13:53:48;22.98;47.92
71096;DHT22;58753;49.440;11.126;2023-09-19T13:56:15;23.13;48.01
71096;DHT22;58753;49.440;11.126;2023-09-19T13:58:41;23.26;47.55
71096;DHT22;58753;49.440;11.126;2023-09-19T14:01:07;23.47;47.79
71096;DHT22;58753;49.440;11.126;2023-09-19T14:03:40;23.84;47.27
71096;DHT22;58753;49.440;11.126;2023-09-19T14:06:06;24.08;45.79
71096;DHT22;58753;49.440;11.126;2023-09-19T14:08:32;24.21;45.24
71096;DHT22;58753;49.440;11.126;2023-09-19T14:11:05;23.87;44.26
71096;DHT22;58753;49.440;11.126;2023-09-19T14:13:31;23.37;44.68
71096;DHT22;58753;49.440;11.126;2023-09-19T14:16:06;22.66;46.02
71096;DHT22;58753;49.440;11.126;2023-09-19T14:18:34;22.28;47.61
71096;DHT22;58753;49.440;11.126;2023-09-19T14:21:03;22.55;48.35
71096;DHT22;58753;49.440;11.126;2023-09-19T14:23:29;22.92;48.21
71096;DHT22;58753;49.440;11.126;2023-09-19T14:26:02;23.13;47.05
71096;DHT22;58753;49.440;11.126;2023-09-19T14:28:30;23.13;46.56
71096;DHT22;58753;49.440;11.126;2023-09-19T14:30:56;23.19;47.15
71096;DHT22;58753;49.440;11.126;2023-09-19T14:33:24;23.45;47.24
71096;DHT22;58753;49.440;11.126;2023-09-19T14:35:50;23.61;45.98
71096;DHT22;58753;49.440;11.126;2023-09-19T14:38:15;23.80;45.00
71096;DHT22;58753;49.440;11.126;2023-09-19T14:40:40;23.94;44.31
71096;DHT22;58753;49.440;11.126;2023-09-19T14:43:07;23.75;42.51
71096;DHT22;58753;49.440;11.126;2023-09-19T14:45:35;23.56;44.20
71096;DHT22;58753;49.440;11.126;2023-09-19T14:48:03;23.27;44.90
71096;DHT22;58753;49.440;11.126;2023-09-19T14:50:30;23.22;45.19
71096;DHT22;58753;49.440;11.126;2023-09-19T14:52:56;23.20;45.54
71096;DHT22;58753;49.440;11.126;2023-09-19T14:55:27;23.00;45.17
71096;DHT22;58753;49.440;11.126;2023-09-19T14:57:54;22.58;45.54
71096;DHT22;58753;49.440;11.126;2023-09-19T15:00:24;22.38;47.29
71096;DHT22;58753;49.440;11.126;2023-09-19T15:02:50;22.55;47.36
71096;DHT22;58753;49.440;11.126;2023-09-19T15:05:18;22.59;46.80
71096;DHT22;58753;49.440;11.126;2023-09-19T15:07:44;22.58;46.66
71096;DHT22;58753;49.440;11.126;2023-09-19T15:10:12;22.45;46.93
71096;DHT22;58753;49.440;11.126;2023-09-19T15:12:38;22.15;47.51
71096;DHT22;58753;49.440;11.126;2023-09-19T15:15:05;22.15;48.26
71096;DHT22;58753;49.440;11.126;2023-09-19T15:17:33;22.25;48.85
71096;DHT22;58753;49.440;11.126;2023-09-19T15:19:59;22.38;49.24
71096;DHT22;58753;49.440;11.126;2023-09-19T15:22:24;22.40;49.34
71096;DHT22;58753;49.440;11.126;2023-09-19T15:24:50;22.33;48.60
71096;DHT22;58753;49.440;11.126;2023-09-19T15:27:16;22.22;48.87
71096;DHT22;58753;49.440;11.126;2023-09-19T15:29:41;22.20;48.55
71096;DHT22;58753;49.440;11.126;2023-09-19T15:32:10;22.11;47.81
71096;DHT22;58753;49.440;11.126;2023-09-19T15:34:35;21.91;47.86
71096;DHT22;58753;49.440;11.126;2023-09-19T15:37:01;21.83;48.47
71096;DHT22;58753;49.440;11.126;2023-09-19T15:39:30;21.76;48.50
71096;DHT22;58753;49.440;11.126;2023-09-19T15:41:58;21.64;48.68
71096;DHT22;58753;49.440;11.126;2023-09-19T15:44:23;21.62;48.86
71096;DHT22;58753;49.440;11.126;2023-09-19T15:46:51;21.54;48.70
71096;DHT22;58753;49.440;11.126;2023-09-19T15:49:17;21.50;48.85
71096;DHT22;58753;49.440;11.126;2023-09-19T15:51:42;21.38;48.69
71096;DHT22;58753;49.440;11.126;2023-09-19T15:54:14;21.29;48.69
71096;DHT22;58753;49.440;11.126;2023-09-19T15:56:40;21.20;48.82
71096;DHT22;58753;49.440;11.126;2023-09-19T15:59:06;21.15;48.91
71096;DHT22;58753;49.440;11.126;2023-09-19T16:01:32;21.12;49.01
71096;DHT22;58753;49.440;11.126;2023-09-19T16:03:59;21.06;49.10
71096;DHT22;58753;49.440;11.126;2023-09-19T16:06:27;21.03;49.10
71096;DHT22;58753;49.440;11.126;2023-09-19T16:08:55;20.95;48.96
71096;DHT22;58753;49.440;11.126;2023-09-19T16:11:26;20.92;49.02
71096;DHT22;58753;49.440;11.126;2023-09-19T16:13:52;20.89;49.15
71096;DHT22;58753;49.440;11.126;2023-09-19T16:16:23;20.89;49.16
71096;DHT22;58753;49.440;11.126;2023-09-19T16:18:53;20.82;49.06
71096;DHT22;58753;49.440;11.126;2023-09-19T16:21:25;20.79;49.38